Home   Weather   USA   Greenbelt   Past weeks
Flag for USA

Past Weather in Greenbelt, Maryland, USA — Yesterday and Last 2 Weeks

Currently: 55 °F. Clear. (Weather station: Fort Meade / Tipton, USA). See more current weather

Past Weather in Greenbelt — Graph

°F

Greenbelt Temperature Yesterday

Maximum temperature yesterday: 77 °F (at 2:15 pm)
Minimum temperature yesterday: 54 °F (at 11:35 pm)
Average temperature yesterday: 67 °F

High & Low Weather Summary for the Past Weeks

 TemperatureHumidityPressure
High91 °F (Jun 6, 1:35 pm)100% (Jun 2, 5:55 am)30.27 "Hg (Jun 2, 5:55 am)
Low54 °F (Jun 16, 11:35 pm)36% (Jun 16, 5:35 pm)29.75 "Hg (Jun 14, 6:35 pm)
Average73 °F77%30.00 "Hg
* Reported Jun 2 12:35 am — Jun 17 12:15 am, Greenbelt. Weather by CustomWeather, © 2021

Note: Actual official high and low records may vary slightly from our data, if they occured in-between our weather recording intervals... More about our weather records

Greenbelt Weather History for the Previous 24 Hours

Scroll right to see more
 ConditionsComfort  
Time TempWeatherWind HumidityBarometerVisibility
12:15 am
Thu, Jun 17
54 °FClear.No wind94%30.00 "Hg10 mi
11:55 pm
Wed, Jun 16
54 °FClear.No wind94%30.00 "Hg10 mi
11:35 pm54 °FClear.No wind94%30.00 "Hg10 mi
10:55 pm55 °FClear.No wind88%29.99 "Hg10 mi
10:35 pm55 °FClear.No wind88%29.99 "Hg10 mi
10:15 pm57 °FClear.No wind82%29.98 "Hg10 mi
9:55 pm57 °FClear.No wind82%29.98 "Hg10 mi
9:35 pm59 °FClear.No wind77%29.98 "Hg10 mi
9:15 pm61 °FPassing clouds.No wind77%29.97 "Hg10 mi
8:55 pm61 °FPassing clouds.No wind77%29.96 "Hg10 mi
8:35 pm63 °FPassing clouds.No wind73%29.96 "Hg10 mi
8:15 pm64 °FSunny.No wind64%29.95 "Hg10 mi
7:55 pm68 °FSunny.3 mph56%29.95 "Hg10 mi
7:35 pm70 °FSunny.No wind43%29.94 "Hg10 mi
7:15 pm72 °FSunny.5 mph38%29.94 "Hg10 mi
6:55 pm72 °FSunny.8 mph41%29.93 "Hg10 mi
6:35 pm73 °FSunny.5 mph36%29.93 "Hg10 mi
6:15 pm73 °FSunny.8 mph38%29.93 "Hg10 mi
5:55 pm73 °FSunny.8 mph41%29.93 "Hg10 mi
5:35 pm75 °FScattered clouds.8 mph36%29.93 "Hg10 mi
5:15 pm77 °FScattered clouds.10 mph39%29.93 "Hg10 mi
4:55 pm77 °FScattered clouds.5 mph39%29.94 "Hg10 mi
4:35 pm77 °FScattered clouds.No wind42%29.93 "Hg10 mi
4:15 pm77 °FSunny.5 mph39%29.93 "Hg10 mi
3:55 pm73 °FSunny.5 mph50%29.93 "Hg10 mi
3:35 pm77 °FScattered clouds.7 mph39%29.93 "Hg10 mi
2:35 pm77 °FSunny.No wind42%29.94 "Hg10 mi
2:15 pm77 °FSunny.7 mph39%29.94 "Hg10 mi
1:55 pm75 °FSunny.7 mph41%29.94 "Hg10 mi
1:35 pm75 °FSunny.7 mph39%29.94 "Hg10 mi
1:15 pm75 °FSunny.5 mph41%29.94 "Hg10 mi
12:55 pm75 °FSunny.9 mph39%29.94 "Hg10 mi
12:35 pm75 °FSunny.10 mph41%29.94 "Hg10 mi
12:15 pm75 °FSunny.8 mph41%29.94 "Hg10 mi
11:55 am75 °FSunny.No wind41%29.94 "Hg10 mi
11:35 am73 °FSunny.7 mph44%29.95 "Hg10 mi
11:15 am73 °FSunny.7 mph47%29.95 "Hg10 mi
10:55 am73 °FSunny.5 mph44%29.94 "Hg10 mi
10:35 am72 °FSunny.7 mph47%29.94 "Hg10 mi
10:15 am72 °FSunny.8 mph50%29.95 "Hg10 mi
9:55 am70 °FSunny.7 mph50%29.95 "Hg10 mi
9:35 am70 °FSunny.5 mph57%29.95 "Hg10 mi
9:15 am63 °FScattered clouds.No wind73%29.95 "Hg10 mi
8:55 am64 °FMore clouds than sun.5 mph64%29.95 "Hg10 mi
8:35 am64 °FPartly sunny.No wind73%29.95 "Hg10 mi
8:15 am63 °FPartly sunny.No wind83%29.94 "Hg10 mi
7:55 am63 °FOvercast.No wind83%29.94 "Hg10 mi
7:35 am63 °FBroken clouds.No wind77%29.94 "Hg10 mi
5:35 am57 °FClear.No wind94%29.91 "Hg10 mi
4:55 am59 °FPassing clouds.No wind88%29.90 "Hg10 mi
4:15 am59 °FClear.No wind88%29.88 "Hg10 mi
3:55 am59 °FClear.No wind88%29.89 "Hg10 mi
3:35 am59 °FClear.No wind88%29.88 "Hg10 mi
3:15 am59 °FPassing clouds.No wind88%29.88 "Hg10 mi
2:55 am59 °FPassing clouds.No wind88%29.88 "Hg10 mi
Weather by CustomWeather, © 2021

See weather overview